createdAt,value
2022-12-18T00:00:11.030Z,110.18
2022-12-18T00:02:49.940Z,119.10
2022-12-18T00:05:23.165Z,116.32
2022-12-18T00:07:54.168Z,110.32
2022-12-18T00:10:24.952Z,103.82
2022-12-18T00:12:57.713Z,90.25
2022-12-18T00:15:28.316Z,92.88
2022-12-18T00:17:59.423Z,103.78
2022-12-18T00:20:38.089Z,90.07
2022-12-18T00:23:09.486Z,102.80
2022-12-18T00:25:41.042Z,99.32
2022-12-18T00:28:24.902Z,94.80
2022-12-18T00:31:07.579Z,94.85
2022-12-18T00:33:40.248Z,108.90
2022-12-18T00:36:16.632Z,91.60
2022-12-18T00:38:49.531Z,105.30
2022-12-18T00:41:42.296Z,95.60
2022-12-18T00:44:17.400Z,98.03
2022-12-18T00:46:49.440Z,116.22
2022-12-18T00:49:22.509Z,99.50
2022-12-18T00:51:53.921Z,91.47
2022-12-18T00:54:28.691Z,92.63
2022-12-18T00:56:58.970Z,95.10
2022-12-18T00:59:33.172Z,108.53
2022-12-18T01:02:04.895Z,101.95
2022-12-18T01:04:36.611Z,93.70
2022-12-18T01:07:08.058Z,98.50
2022-12-18T01:09:39.202Z,107.70
2022-12-18T01:12:10.341Z,107.45
2022-12-18T01:14:47.079Z,96.90
2022-12-18T01:17:18.914Z,112.95
2022-12-18T01:19:49.179Z,100.93
2022-12-18T01:22:19.323Z,139.07
2022-12-18T01:24:51.903Z,111.28
2022-12-18T01:27:22.538Z,113.07
2022-12-18T01:30:02.687Z,98.40
2022-12-18T01:32:36.647Z,105.35
2022-12-18T01:35:07.439Z,109.85
2022-12-18T01:37:37.772Z,105.63
2022-12-18T01:40:09.239Z,104.88
2022-12-18T01:42:39.401Z,107.10
2022-12-18T01:45:33.394Z,125.55
2022-12-18T01:48:07.560Z,107.53
2022-12-18T01:50:40.699Z,102.97
2022-12-18T01:53:15.008Z,113.40
2022-12-18T01:55:50.583Z,111.93
2022-12-18T01:58:24.364Z,113.63
2022-12-18T02:00:59.178Z,124.72
2022-12-18T02:03:30.058Z,110.07
2022-12-18T02:06:11.085Z,117.68
2022-12-18T02:08:49.722Z,119.93
2022-12-18T02:11:26.012Z,123.93
2022-12-18T02:14:07.719Z,113.75
2022-12-18T02:16:51.479Z,116.82
2022-12-18T02:19:43.841Z,116.72
2022-12-18T02:22:29.042Z,106.57
2022-12-18T02:25:10.343Z,115.32
2022-12-18T02:27:45.313Z,128.88
2022-12-18T02:30:16.394Z,132.30
2022-12-18T02:32:52.158Z,112.90
2022-12-18T02:35:28.219Z,118.97
2022-12-18T02:38:02.197Z,121.40
2022-12-18T02:40:36.893Z,136.18
2022-12-18T02:43:12.240Z,122.13
2022-12-18T02:45:52.183Z,138.35
2022-12-18T02:48:27.995Z,111.95
2022-12-18T02:51:07.947Z,116.93
2022-12-18T02:53:46.917Z,112.88
2022-12-18T02:56:22.945Z,112.72
2022-12-18T02:59:02.785Z,107.00
2022-12-18T03:01:46.308Z,111.72
2022-12-18T03:04:27.822Z,100.43
2022-12-18T03:07:04.595Z,110.18
2022-12-18T03:09:39.568Z,114.07
2022-12-18T03:12:28.053Z,108.50
2022-12-18T03:15:16.010Z,103.50
2022-12-18T03:17:56.026Z,106.18
2022-12-18T03:20:38.735Z,114.68
2022-12-18T03:23:15.283Z,114.63
2022-12-18T03:26:07.146Z,108.68
2022-12-18T03:28:44.192Z,115.60
2022-12-18T03:31:18.735Z,111.07
2022-12-18T03:33:55.466Z,107.30
2022-12-18T03:36:31.485Z,108.05
2022-12-18T03:39:05.322Z,114.03
2022-12-18T03:41:50.883Z,98.68
2022-12-18T03:44:34.359Z,113.40
2022-12-18T03:47:11.935Z,104.45
2022-12-18T03:49:52.281Z,112.78
2022-12-18T03:52:30.441Z,112.65
2022-12-18T03:55:04.435Z,103.07
2022-12-18T03:57:36.845Z,120.38
2022-12-18T04:00:17.068Z,123.50
2022-12-18T04:03:05.152Z,132.80
2022-12-18T04:05:46.246Z,123.68
2022-12-18T04:08:19.086Z,109.00
2022-12-18T04:10:59.648Z,113.88
2022-12-18T04:13:34.068Z,104.82
2022-12-18T04:16:08.227Z,101.20
2022-12-18T04:18:41.721Z,114.63
2022-12-18T04:21:14.208Z,116.90
2022-12-18T04:23:44.433Z,107.78
2022-12-18T04:26:14.956Z,109.00
2022-12-18T04:28:56.033Z,107.55
2022-12-18T04:31:26.343Z,96.82
2022-12-18T04:34:00.315Z,114.45
2022-12-18T04:36:32.107Z,114.55
2022-12-18T04:39:02.921Z,110.13
2022-12-18T04:41:42.344Z,116.45
2022-12-18T04:44:13.569Z,112.15
2022-12-18T04:46:43.914Z,118.68
2022-12-18T04:49:16.891Z,114.80
2022-12-18T04:51:48.034Z,110.45
2022-12-18T04:54:18.203Z,110.60
2022-12-18T04:56:51.447Z,118.90
2022-12-18T04:59:22.633Z,101.53
2022-12-18T05:01:53.577Z,113.70
2022-12-18T05:04:26.942Z,101.63
2022-12-18T05:07:00.870Z,108.53
2022-12-18T05:09:31.227Z,115.07
2022-12-18T05:12:01.485Z,101.93
2022-12-18T05:14:32.808Z,101.75
2022-12-18T05:17:04.399Z,110.57
2022-12-18T05:19:40.032Z,101.72
2022-12-18T05:22:13.834Z,106.20
2022-12-18T05:27:13.861Z,117.28
2022-12-18T05:29:44.185Z,128.75
2022-12-18T05:32:14.406Z,119.40
2022-12-18T05:34:47.148Z,117.72
2022-12-18T05:37:18.092Z,111.85
2022-12-18T05:39:49.107Z,107.80
2022-12-18T05:42:19.497Z,100.03
2022-12-18T05:44:49.603Z,104.20
2022-12-18T05:47:19.854Z,113.22
2022-12-18T05:49:53.038Z,127.78
2022-12-18T05:52:23.037Z,112.70
2022-12-18T05:54:53.132Z,111.07
2022-12-18T05:57:23.436Z,109.22
2022-12-18T05:59:53.711Z,114.97
2022-12-18T06:02:28.315Z,120.30
2022-12-18T06:05:01.176Z,133.98
2022-12-18T06:07:31.208Z,158.02
2022-12-18T06:10:04.755Z,125.90
2022-12-18T06:12:35.120Z,123.38
2022-12-18T06:15:05.268Z,144.05
2022-12-18T06:17:36.318Z,163.15
2022-12-18T06:20:10.843Z,159.95
2022-12-18T06:22:41.055Z,136.50
2022-12-18T06:25:12.195Z,127.63
2022-12-18T06:27:42.467Z,143.60
2022-12-18T06:30:14.845Z,135.00
2022-12-18T06:32:45.141Z,125.95
2022-12-18T06:35:21.419Z,134.07
2022-12-18T06:37:52.121Z,127.45
2022-12-18T06:40:23.204Z,124.15
2022-12-18T06:42:56.330Z,126.97
2022-12-18T06:45:28.346Z,122.88
2022-12-18T06:47:58.567Z,128.65
2022-12-18T06:50:32.048Z,131.63
2022-12-18T06:53:02.504Z,142.27
2022-12-18T06:55:32.772Z,131.88
2022-12-18T06:58:02.893Z,129.65
2022-12-18T07:00:33.392Z,165.52
2022-12-18T07:03:04.048Z,231.40
2022-12-18T07:05:37.473Z,158.80
2022-12-18T07:08:08.319Z,211.63
2022-12-18T07:10:48.214Z,268.45
2022-12-18T07:13:19.291Z,237.30
2022-12-18T07:15:49.658Z,399.90
2022-12-18T07:18:20.605Z,287.88
2022-12-18T07:20:58.770Z,345.58
2022-12-18T07:23:33.742Z,484.08
2022-12-18T07:26:06.197Z,501.88
2022-12-18T07:28:38.008Z,621.00
2022-12-18T07:31:09.872Z,451.95
2022-12-18T07:33:41.121Z,449.13
2022-12-18T07:36:17.694Z,298.75
2022-12-18T07:38:51.423Z,546.97
2022-12-18T07:43:52.548Z,517.35
2022-12-18T07:46:23.103Z,182.82
2022-12-18T07:48:53.408Z,309.48
2022-12-18T07:51:26.288Z,332.00
2022-12-18T07:53:56.333Z,264.83
2022-12-18T07:56:28.760Z,245.55
2022-12-18T07:59:01.266Z,253.07
2022-12-18T08:01:43.621Z,391.30
2022-12-18T08:04:13.828Z,226.98
2022-12-18T08:06:53.162Z,232.85
2022-12-18T08:09:25.860Z,218.52
2022-12-18T08:11:56.097Z,217.57
2022-12-18T08:14:27.199Z,207.98
2022-12-18T08:16:57.571Z,172.23
2022-12-18T08:19:28.160Z,172.15
2022-12-18T08:22:01.865Z,158.23
2022-12-18T08:24:36.371Z,147.38
2022-12-18T08:27:28.825Z,149.40
2022-12-18T08:29:56.996Z,203.40
2022-12-18T08:32:36.240Z,175.43
2022-12-18T08:35:11.681Z,175.15
2022-12-18T08:37:44.694Z,136.70
2022-12-18T08:40:18.234Z,251.88
2022-12-18T08:43:01.793Z,164.32
2022-12-18T08:45:39.317Z,178.25
2022-12-18T08:48:12.347Z,383.35
2022-12-18T08:50:42.710Z,151.53
2022-12-18T08:53:17.152Z,149.55
2022-12-18T08:55:50.364Z,146.57
2022-12-18T08:58:23.179Z,149.80
2022-12-18T09:00:54.025Z,145.95
2022-12-18T09:03:24.839Z,99.78
2022-12-18T09:05:57.597Z,167.00
2022-12-18T09:08:30.564Z,294.40
2022-12-18T09:11:03.352Z,166.70
2022-12-18T09:13:36.166Z,142.18
2022-12-18T09:16:08.125Z,224.90
2022-12-18T09:18:43.490Z,147.63
2022-12-18T09:21:19.104Z,123.47
2022-12-18T09:24:02.370Z,103.13
2022-12-18T09:26:32.756Z,113.85
2022-12-18T09:29:07.142Z,111.60
2022-12-18T09:31:41.616Z,175.57
2022-12-18T09:34:11.402Z,122.68
2022-12-18T09:36:53.428Z,113.20
2022-12-18T09:39:24.175Z,98.40
2022-12-18T09:41:54.740Z,98.18
2022-12-18T09:44:24.558Z,112.35
2022-12-18T10:48:55.768Z,141.25
2022-12-18T10:51:31.723Z,147.45
2022-12-18T10:54:06.215Z,140.18
2022-12-18T10:56:39.260Z,143.60
2022-12-18T10:59:10.913Z,140.48
2022-12-18T11:01:52.140Z,133.98
2022-12-18T11:04:27.741Z,128.05
2022-12-18T11:07:04.322Z,134.25
2022-12-18T11:09:36.223Z,124.93
2022-12-18T11:12:08.366Z,111.55
2022-12-18T11:14:48.457Z,103.50
2022-12-18T11:17:26.225Z,102.20
2022-12-18T11:20:00.927Z,94.13
2022-12-18T11:22:33.317Z,87.32
2022-12-18T11:27:58.970Z,85.75
2022-12-18T11:30:36.296Z,93.68
2022-12-18T11:33:09.703Z,108.05
2022-12-18T11:35:51.717Z,130.95
2022-12-18T11:38:26.922Z,118.82
2022-12-18T11:41:02.338Z,92.90
2022-12-18T11:43:38.281Z,90.80
2022-12-18T11:46:19.126Z,104.38
2022-12-18T11:48:56.180Z,88.65
2022-12-18T11:51:36.288Z,85.43
2022-12-18T11:54:16.387Z,86.63
2022-12-18T11:56:51.277Z,81.55
2022-12-18T11:59:32.306Z,86.53
2022-12-18T12:02:18.946Z,81.55
2022-12-18T12:05:17.735Z,88.80
2022-12-18T12:07:59.311Z,157.38
2022-12-18T12:10:44.916Z,112.35
2022-12-18T12:13:27.853Z,91.60
2022-12-18T12:16:10.499Z,93.10
2022-12-18T12:19:02.257Z,112.50
2022-12-18T12:21:39.740Z,105.15
2022-12-18T12:24:27.471Z,97.15
2022-12-18T12:27:06.637Z,90.85
2022-12-18T12:29:49.577Z,93.15
2022-12-18T12:32:34.433Z,89.68
2022-12-18T12:35:17.840Z,90.05
2022-12-18T12:37:56.956Z,86.05
2022-12-18T12:43:34.205Z,338.27
2022-12-18T12:46:09.659Z,1070.47
2022-12-18T12:48:45.887Z,348.58
2022-12-18T12:51:21.607Z,179.35
2022-12-18T12:53:53.100Z,182.68
2022-12-18T12:56:28.956Z,362.15
2022-12-18T12:59:06.284Z,88.75
2022-12-18T13:01:43.890Z,93.82
2022-12-18T13:04:26.192Z,95.78
2022-12-18T13:07:04.149Z,95.47
2022-12-18T13:09:36.725Z,97.90
2022-12-18T13:12:27.758Z,102.90
2022-12-18T13:14:58.598Z,94.53
2022-12-18T13:17:33.686Z,124.90
2022-12-18T13:20:24.943Z,112.00
2022-12-18T13:22:56.490Z,111.70
2022-12-18T13:25:39.823Z,134.88
2022-12-18T13:28:15.888Z,117.85
2022-12-18T13:30:51.778Z,125.45
2022-12-18T13:34:24.006Z,103.43
2022-12-18T13:36:37.727Z,88.20
2022-12-18T13:39:36.050Z,96.20
2022-12-18T13:42:48.938Z,104.53
2022-12-18T13:45:50.317Z,91.80
2022-12-18T13:48:42.504Z,99.50
2022-12-18T13:51:20.700Z,101.82
2022-12-18T13:53:55.123Z,99.30
2022-12-18T13:56:29.469Z,119.00
2022-12-18T13:59:15.873Z,103.93
2022-12-18T14:01:53.157Z,114.47
2022-12-18T14:04:27.518Z,102.90
2022-12-18T14:07:01.647Z,107.45
2022-12-18T14:09:35.015Z,108.85
2022-12-18T14:12:20.142Z,131.68
2022-12-18T14:14:53.168Z,114.80
2022-12-18T14:17:28.546Z,108.75
2022-12-18T14:19:58.679Z,109.27
2022-12-18T14:22:31.295Z,99.20
2022-12-18T14:25:20.391Z,105.65
2022-12-18T14:27:53.709Z,185.98
2022-12-18T14:30:33.708Z,148.98
2022-12-18T14:33:14.450Z,154.30
2022-12-18T14:35:50.544Z,145.23
2022-12-18T14:38:27.740Z,157.98
2022-12-18T14:41:05.595Z,169.38
2022-12-18T14:43:38.527Z,143.48
2022-12-18T14:46:10.652Z,141.88
2022-12-18T14:48:46.432Z,143.57
2022-12-18T14:51:21.895Z,140.65
2022-12-18T14:53:57.721Z,133.88
2022-12-18T14:56:30.097Z,118.88
2022-12-18T14:59:02.150Z,124.88
2022-12-18T15:01:36.243Z,119.35
2022-12-18T15:04:29.222Z,146.60
2022-12-18T15:07:17.390Z,133.52
2022-12-18T15:10:07.288Z,139.38
2022-12-18T15:12:39.294Z,125.72
2022-12-18T15:15:26.723Z,130.30
2022-12-18T15:18:01.967Z,139.57
2022-12-18T15:20:36.878Z,153.10
2022-12-18T15:23:06.958Z,159.82
2022-12-18T15:25:40.497Z,149.48
2022-12-18T15:28:24.020Z,138.32
2022-12-18T15:31:09.396Z,148.30
2022-12-18T15:33:42.003Z,158.38
2022-12-18T15:36:19.002Z,151.70
2022-12-18T15:39:02.223Z,158.85
2022-12-18T15:41:37.255Z,148.85
2022-12-18T15:44:22.541Z,148.30
2022-12-18T15:46:53.025Z,155.02
2022-12-18T15:49:25.331Z,147.30
2022-12-18T15:52:02.264Z,143.43
2022-12-18T15:54:44.672Z,148.15
2022-12-18T15:57:27.720Z,154.20
2022-12-18T15:59:59.710Z,149.30
2022-12-18T16:02:30.869Z,152.98
2022-12-18T16:05:01.327Z,172.07
2022-12-18T16:07:34.213Z,195.70
2022-12-18T16:10:04.947Z,238.80
2022-12-18T16:12:35.340Z,302.92
2022-12-18T16:15:11.413Z,254.82
2022-12-18T16:17:42.502Z,223.77
2022-12-18T16:20:16.613Z,230.90
2022-12-18T16:22:50.639Z,227.93
2022-12-18T16:25:26.038Z,214.77
2022-12-18T16:27:57.427Z,208.88
2022-12-18T16:30:34.027Z,222.88
2022-12-18T16:33:09.299Z,204.77
2022-12-18T16:35:39.439Z,212.68
2022-12-18T16:38:12.386Z,188.85
2022-12-18T16:41:04.736Z,187.50
2022-12-18T16:43:34.912Z,191.90
2022-12-18T16:46:05.074Z,183.63
2022-12-18T16:48:42.421Z,180.32
2022-12-18T16:51:12.498Z,191.70
2022-12-18T16:53:45.684Z,204.60
2022-12-18T16:56:15.924Z,223.60
2022-12-18T16:58:45.959Z,291.83
2022-12-18T17:01:16.497Z,320.65
2022-12-18T17:03:46.896Z,326.38
2022-12-18T17:06:18.741Z,331.58
2022-12-18T17:08:52.264Z,303.75
2022-12-18T17:11:23.323Z,312.05
2022-12-18T17:13:54.997Z,309.63
2022-12-18T17:16:28.115Z,295.02
2022-12-18T17:19:01.778Z,333.23
2022-12-18T17:21:33.216Z,329.88
2022-12-18T17:24:09.324Z,298.95
2022-12-18T17:26:40.348Z,265.63
2022-12-18T17:29:10.668Z,294.75
2022-12-18T17:31:40.890Z,274.52
2022-12-18T17:34:11.387Z,247.35
2022-12-18T17:36:43.333Z,259.88
2022-12-18T17:39:22.186Z,264.73
2022-12-18T17:41:52.718Z,262.58
2022-12-18T17:44:23.839Z,268.48
2022-12-18T17:46:54.041Z,266.88
2022-12-18T17:49:26.184Z,271.73
2022-12-18T17:51:56.782Z,266.38
2022-12-18T17:54:29.670Z,257.17
2022-12-18T17:57:00.599Z,295.07
2022-12-18T17:59:35.326Z,287.95
2022-12-18T18:02:05.827Z,270.05
2022-12-18T18:04:38.908Z,276.95
2022-12-18T18:07:09.605Z,274.02
2022-12-18T18:09:42.729Z,276.65
2022-12-18T18:12:25.124Z,292.63
2022-12-18T18:14:55.405Z,279.63
2022-12-18T18:17:25.966Z,289.10
2022-12-18T18:19:56.356Z,274.58
2022-12-18T18:22:29.285Z,251.48
2022-12-18T18:25:03.468Z,244.20
2022-12-18T18:27:38.509Z,230.48
2022-12-18T18:30:10.981Z,247.18
2022-12-18T18:32:41.052Z,247.43
2022-12-18T18:35:19.512Z,239.38
2022-12-18T18:38:04.457Z,246.48
2022-12-18T18:40:37.403Z,228.25
2022-12-18T18:43:12.992Z,227.48
2022-12-18T18:45:43.757Z,235.07
2022-12-18T18:48:16.158Z,230.65
2022-12-18T18:50:46.358Z,237.30
2022-12-18T18:53:16.804Z,229.23
2022-12-18T18:56:17.290Z,238.48
2022-12-18T18:58:40.527Z,230.32
2022-12-18T19:01:13.428Z,228.48
2022-12-18T19:03:43.964Z,222.30
2022-12-18T19:06:18.128Z,206.07
2022-12-18T19:08:49.537Z,216.90
2022-12-18T19:11:36.755Z,248.82
2022-12-18T19:14:17.507Z,218.07
2022-12-18T19:16:50.163Z,208.38
2022-12-18T19:19:21.201Z,215.50
2022-12-18T19:21:51.671Z,196.02
2022-12-18T19:24:22.631Z,198.38
2022-12-18T19:26:57.942Z,209.35
2022-12-18T19:29:28.633Z,192.15
2022-12-18T19:31:59.299Z,187.43
2022-12-18T19:34:29.796Z,197.13
2022-12-18T19:37:00.491Z,183.93
2022-12-18T19:39:31.014Z,181.32
2022-12-18T19:42:04.247Z,191.05
2022-12-18T19:44:34.432Z,195.32
2022-12-18T19:47:04.702Z,189.27
2022-12-18T19:49:34.935Z,198.25
2022-12-18T19:52:05.347Z,192.55
2022-12-18T19:54:35.441Z,210.68
2022-12-18T19:57:13.186Z,205.85
2022-12-18T19:59:46.641Z,209.00
2022-12-18T20:02:19.320Z,225.50
2022-12-18T20:04:52.012Z,231.98
2022-12-18T20:07:22.499Z,236.48
2022-12-18T20:09:59.563Z,232.45
2022-12-18T20:12:37.616Z,222.18
2022-12-18T20:15:08.727Z,205.32
2022-12-18T20:17:38.893Z,210.90
2022-12-18T20:20:13.248Z,217.30
2022-12-18T20:22:43.575Z,230.82
2022-12-18T20:25:14.170Z,226.77
2022-12-18T20:27:47.809Z,248.73
2022-12-18T20:30:18.082Z,260.08
2022-12-18T20:32:48.340Z,247.52
2022-12-18T20:35:18.860Z,248.25
2022-12-18T20:37:50.394Z,236.93
2022-12-18T20:40:22.209Z,254.27
2022-12-18T20:42:55.534Z,245.13
2022-12-18T20:45:29.529Z,266.40
2022-12-18T20:48:01.172Z,279.50
2022-12-18T20:50:31.542Z,294.60
2022-12-18T20:53:02.094Z,297.60
2022-12-18T20:55:32.389Z,237.95
2022-12-18T20:58:05.689Z,230.20
2022-12-18T21:00:36.470Z,218.77
2022-12-18T21:03:07.256Z,232.50
2022-12-18T21:05:37.752Z,210.05
2022-12-18T21:08:10.527Z,221.20
2022-12-18T21:10:43.239Z,224.63
2022-12-18T21:13:16.365Z,221.70
2022-12-18T21:15:48.568Z,212.85
2022-12-18T21:18:18.836Z,220.40
2022-12-18T21:20:49.401Z,210.93
2022-12-18T21:23:19.888Z,219.20
2022-12-18T21:25:51.954Z,210.10
2022-12-18T21:28:28.730Z,206.35
2022-12-18T21:31:12.268Z,188.95
2022-12-18T21:33:43.297Z,195.43
2022-12-18T21:36:17.862Z,193.00
2022-12-18T21:38:48.793Z,201.07
2022-12-18T21:41:33.136Z,194.73
2022-12-18T21:44:11.377Z,204.68
2022-12-18T21:46:44.221Z,199.50
2022-12-18T21:49:17.786Z,213.70
2022-12-18T21:51:48.785Z,199.05
2022-12-18T21:54:19.676Z,202.00
2022-12-18T21:56:52.131Z,197.05
2022-12-18T21:59:26.864Z,198.75
2022-12-18T22:01:59.606Z,204.95
2022-12-18T22:04:31.107Z,193.70
2022-12-18T22:07:02.538Z,206.30
2022-12-18T22:09:33.200Z,192.63
2022-12-18T22:12:04.035Z,188.25
2022-12-18T22:14:39.485Z,190.00
2022-12-18T22:17:11.471Z,192.20
2022-12-18T22:19:43.103Z,202.75
2022-12-18T22:22:13.369Z,202.35
2022-12-18T22:24:43.452Z,188.10
2022-12-18T22:27:13.560Z,175.55
2022-12-18T22:29:58.993Z,177.38
2022-12-18T22:32:31.165Z,168.52
2022-12-18T22:35:08.018Z,158.60
2022-12-18T22:37:39.441Z,164.35
2022-12-18T22:40:11.173Z,166.77
2022-12-18T22:42:43.060Z,152.20
2022-12-18T22:45:21.141Z,171.15
2022-12-18T22:47:51.330Z,174.07
2022-12-18T22:50:21.605Z,176.38
2022-12-18T22:52:51.674Z,176.48
2022-12-18T22:55:22.570Z,163.15
2022-12-18T22:57:52.675Z,162.07
2022-12-18T23:00:25.834Z,163.68
2022-12-18T23:03:00.716Z,149.35
2022-12-18T23:05:32.433Z,158.80
2022-12-18T23:08:03.089Z,154.15
2022-12-18T23:10:33.888Z,167.80
2022-12-18T23:13:04.418Z,157.43
2022-12-18T23:15:44.043Z,159.18
2022-12-18T23:18:14.500Z,149.52
2022-12-18T23:20:44.742Z,162.20
2022-12-18T23:23:16.216Z,160.77
2022-12-18T23:25:46.446Z,150.68
2022-12-18T23:28:17.824Z,153.82
2022-12-18T23:30:51.320Z,147.38
2022-12-18T23:33:21.427Z,159.63
2022-12-18T23:35:51.773Z,154.35
2022-12-18T23:38:23.242Z,160.27
2022-12-18T23:40:56.329Z,152.45
2022-12-18T23:43:29.512Z,173.80
2022-12-18T23:46:02.571Z,160.45
2022-12-18T23:48:33.160Z,168.65
2022-12-18T23:51:11.171Z,157.30
2022-12-18T23:53:41.557Z,160.80
2022-12-18T23:56:13.702Z,160.32
2022-12-18T23:58:47.082Z,158.52
